createdAt,value
2022-12-05T00:02:27.440Z,3.80
2022-12-05T00:04:57.637Z,3.90
2022-12-05T00:07:29.274Z,4.00
2022-12-05T00:09:57.419Z,4.00
2022-12-05T00:12:25.498Z,4.00
2022-12-05T00:14:53.461Z,3.90
2022-12-05T00:17:21.349Z,3.80
2022-12-05T00:19:53.706Z,3.80
2022-12-05T00:22:26.986Z,3.80
2022-12-05T00:24:55.003Z,3.90
2022-12-05T00:27:22.980Z,3.80
2022-12-05T00:29:50.945Z,3.90
2022-12-05T00:32:18.895Z,3.90
2022-12-05T00:34:49.911Z,3.90
2022-12-05T00:37:17.888Z,3.90
2022-12-05T00:39:48.397Z,3.90
2022-12-05T00:42:16.389Z,3.90
2022-12-05T00:44:44.334Z,3.90
2022-12-05T00:47:12.189Z,4.00
2022-12-05T00:49:40.046Z,4.00
2022-12-05T00:52:08.059Z,4.00
2022-12-05T00:54:35.971Z,4.00
2022-12-05T00:57:05.379Z,3.90
2022-12-05T00:59:33.291Z,4.00
2022-12-05T01:02:01.292Z,4.00
2022-12-05T01:04:29.375Z,4.00
2022-12-05T01:06:58.782Z,3.90
2022-12-05T01:09:27.106Z,3.90
2022-12-05T01:11:55.091Z,4.00
2022-12-05T01:14:26.404Z,4.00
2022-12-05T01:16:57.463Z,4.10
2022-12-05T01:19:28.064Z,4.20
2022-12-05T01:21:57.207Z,4.20
2022-12-05T01:24:26.933Z,4.20
2022-12-05T01:26:55.188Z,4.20
2022-12-05T01:29:25.662Z,4.20
2022-12-05T01:31:54.003Z,4.20
2022-12-05T01:34:22.673Z,4.30
2022-12-05T01:36:50.598Z,4.20
2022-12-05T01:39:18.494Z,4.20
2022-12-05T01:41:49.558Z,4.20
2022-12-05T01:44:55.143Z,4.20
2022-12-05T01:47:26.112Z,4.30
2022-12-05T01:49:58.521Z,4.30
2022-12-05T01:52:29.823Z,4.30
2022-12-05T01:55:01.950Z,4.30
2022-12-05T01:57:30.029Z,4.30
2022-12-05T02:00:01.541Z,4.30
2022-12-05T02:02:33.384Z,4.20
2022-12-05T02:05:05.335Z,4.20
2022-12-05T02:07:34.729Z,4.20
2022-12-05T02:10:02.687Z,4.20
2022-12-05T02:12:30.622Z,4.20
2022-12-05T02:15:15.106Z,4.20
2022-12-05T02:17:56.207Z,4.20
2022-12-05T02:20:39.809Z,4.30
2022-12-05T02:23:36.563Z,4.30
2022-12-05T02:26:39.484Z,4.30
2022-12-05T02:29:52.755Z,4.10
2022-12-05T02:32:26.070Z,4.00
2022-12-05T02:35:02.951Z,4.00
2022-12-05T02:37:37.730Z,3.80
2022-12-05T02:40:13.578Z,3.90
2022-12-05T02:42:47.389Z,4.00
2022-12-05T02:45:19.282Z,4.10
2022-12-05T02:47:50.950Z,4.10
2022-12-05T02:50:22.895Z,4.10
2022-12-05T02:52:53.312Z,4.20
2022-12-05T02:55:23.091Z,4.30
2022-12-05T02:57:55.390Z,4.30
2022-12-05T03:00:23.761Z,4.30
2022-12-05T03:02:57.125Z,4.30
2022-12-05T03:05:37.640Z,4.30
2022-12-05T03:08:09.290Z,4.30
2022-12-05T03:10:41.118Z,4.30
2022-12-05T03:13:15.797Z,4.30
2022-12-05T03:15:48.497Z,4.30
2022-12-05T03:18:23.706Z,4.40
2022-12-05T03:20:58.441Z,4.40
2022-12-05T03:23:30.766Z,4.40
2022-12-05T03:26:11.864Z,4.30
2022-12-05T03:28:50.521Z,4.30
2022-12-05T03:31:24.138Z,4.20
2022-12-05T03:33:59.200Z,4.20
2022-12-05T03:36:34.722Z,4.20
2022-12-05T03:39:08.389Z,4.20
2022-12-05T03:41:42.380Z,4.20
2022-12-05T03:44:16.360Z,4.20
2022-12-05T03:46:49.552Z,4.20
2022-12-05T03:49:23.375Z,4.20
2022-12-05T03:51:56.068Z,4.20
2022-12-05T03:54:27.336Z,4.20
2022-12-05T03:57:00.942Z,4.20
2022-12-05T03:59:34.291Z,4.20
2022-12-05T04:02:08.420Z,4.30
2022-12-05T04:04:45.564Z,4.20
2022-12-05T04:07:14.341Z,4.20
2022-12-05T04:09:46.855Z,4.20
2022-12-05T04:12:18.214Z,4.20
2022-12-05T04:14:48.865Z,4.20
2022-12-05T04:17:21.597Z,4.10
2022-12-05T04:20:12.393Z,4.10
2022-12-05T04:22:41.168Z,4.20
2022-12-05T04:25:29.168Z,4.20
2022-12-05T04:28:06.657Z,4.20
2022-12-05T04:30:39.547Z,4.10
2022-12-05T04:33:12.415Z,4.20
2022-12-05T04:35:46.563Z,4.20
2022-12-05T04:38:19.020Z,4.30
2022-12-05T04:40:50.549Z,4.30
2022-12-05T04:43:19.794Z,4.40
2022-12-05T04:45:48.812Z,4.40
2022-12-05T04:48:18.732Z,4.40
2022-12-05T04:50:50.230Z,4.40
2022-12-05T04:53:19.093Z,4.40
2022-12-05T04:55:51.310Z,4.40
2022-12-05T04:58:21.332Z,4.40
2022-12-05T05:00:55.111Z,4.50
2022-12-05T05:03:27.531Z,4.50
2022-12-05T05:05:58.622Z,4.50
2022-12-05T05:08:28.931Z,4.50
2022-12-05T05:11:05.286Z,4.50
2022-12-05T05:13:33.198Z,4.50
2022-12-05T05:16:01.228Z,4.60
2022-12-05T05:18:29.230Z,4.60
2022-12-05T05:20:58.940Z,4.60
2022-12-05T05:23:26.844Z,4.60
2022-12-05T05:25:55.920Z,4.50
2022-12-05T05:28:24.311Z,4.50
2022-12-05T05:30:52.339Z,4.60
2022-12-05T05:33:20.401Z,4.60
2022-12-05T05:36:02.025Z,4.60
2022-12-05T05:38:31.606Z,4.60
2022-12-05T05:41:04.281Z,4.60
2022-12-05T05:43:32.295Z,4.60
2022-12-05T05:46:00.352Z,4.60
2022-12-05T05:48:28.453Z,4.60
2022-12-05T05:50:58.962Z,4.60
2022-12-05T05:53:27.120Z,4.60
2022-12-05T06:00:37.764Z,4.60
2022-12-05T06:07:49.627Z,4.50
2022-12-05T06:10:20.265Z,4.40
2022-12-05T06:12:48.244Z,4.30
2022-12-05T06:15:16.424Z,4.30
2022-12-05T06:17:44.463Z,4.40
2022-12-05T06:20:14.289Z,4.40
2022-12-05T06:22:42.658Z,4.40
2022-12-05T06:25:11.845Z,4.40
2022-12-05T06:27:39.828Z,4.50
2022-12-05T06:30:09.344Z,4.40
2022-12-05T06:32:37.380Z,4.40
2022-12-05T06:35:15.113Z,4.40
2022-12-05T06:37:44.786Z,4.50
2022-12-05T06:40:13.493Z,4.50
2022-12-05T06:42:41.434Z,4.50
2022-12-05T06:45:10.345Z,4.50
2022-12-05T06:47:38.287Z,4.50
2022-12-05T06:50:09.523Z,4.50
2022-12-05T06:52:37.492Z,4.50
2022-12-05T06:55:07.735Z,4.50
2022-12-05T06:57:35.813Z,4.40
2022-12-05T07:00:19.148Z,4.40
2022-12-05T07:02:47.226Z,4.40
2022-12-05T07:05:15.337Z,4.50
2022-12-05T07:07:43.362Z,4.50
2022-12-05T07:10:13.632Z,4.50
2022-12-05T07:12:41.560Z,4.50
2022-12-05T07:15:11.967Z,4.50
2022-12-05T07:17:40.251Z,4.50
2022-12-05T07:20:10.343Z,4.50
2022-12-05T07:22:38.505Z,4.50
2022-12-05T07:25:07.415Z,4.50
2022-12-05T07:27:36.849Z,4.50
2022-12-05T07:30:05.238Z,4.60
2022-12-05T07:32:34.301Z,4.60
2022-12-05T07:35:02.309Z,4.60
2022-12-05T07:37:30.252Z,4.60
2022-12-05T07:39:58.526Z,4.60
2022-12-05T07:42:26.579Z,4.50
2022-12-05T07:44:55.999Z,4.60
2022-12-05T07:47:25.261Z,4.60
2022-12-05T07:49:53.239Z,4.70
2022-12-05T07:52:21.227Z,4.80
2022-12-05T07:54:49.175Z,4.80
2022-12-05T07:57:17.378Z,4.80
2022-12-05T07:59:45.445Z,4.80
2022-12-05T08:02:14.895Z,4.80
2022-12-05T08:04:43.007Z,4.90
2022-12-05T08:07:11.836Z,4.90
2022-12-05T08:09:39.854Z,4.90
2022-12-05T08:12:08.427Z,4.90
2022-12-05T08:14:40.697Z,4.90
2022-12-05T08:17:08.715Z,5.00
2022-12-05T08:19:38.179Z,5.00
2022-12-05T08:22:09.278Z,5.00
2022-12-05T08:24:40.153Z,5.10
2022-12-05T08:27:08.366Z,5.00
2022-12-05T08:29:36.312Z,4.90
2022-12-05T08:32:04.430Z,4.90
2022-12-05T08:34:32.377Z,4.90
2022-12-05T08:37:06.727Z,4.90
2022-12-05T08:39:38.726Z,4.90
2022-12-05T08:42:07.298Z,5.00
2022-12-05T08:44:35.308Z,4.90
2022-12-05T08:47:03.440Z,4.90
2022-12-05T08:49:31.517Z,5.00
2022-12-05T08:51:59.468Z,5.00
2022-12-05T08:54:29.188Z,5.00
2022-12-05T08:57:02.939Z,5.10
2022-12-05T08:59:33.399Z,5.10
2022-12-05T09:02:04.157Z,5.20
2022-12-05T09:04:32.196Z,5.20
2022-12-05T09:07:06.770Z,5.30
2022-12-05T09:09:36.367Z,5.30
2022-12-05T09:12:04.581Z,5.40
2022-12-05T09:14:33.141Z,5.30
2022-12-05T09:17:01.874Z,5.30
2022-12-05T09:19:30.691Z,5.40
2022-12-05T09:22:00.957Z,5.40
2022-12-05T09:24:30.565Z,5.40
2022-12-05T09:27:02.881Z,5.40
2022-12-05T09:29:32.576Z,5.50
2022-12-05T09:32:02.825Z,5.50
2022-12-05T09:34:31.051Z,5.60
2022-12-05T09:37:16.602Z,5.50
2022-12-05T09:39:48.168Z,5.50
2022-12-05T09:42:39.528Z,5.60
2022-12-05T09:45:23.660Z,5.60
2022-12-05T09:47:58.110Z,5.60
2022-12-05T09:50:28.276Z,5.50
2022-12-05T09:53:07.892Z,5.50
2022-12-05T09:55:52.405Z,5.50
2022-12-05T09:58:41.374Z,5.50
2022-12-05T10:01:28.773Z,5.50
2022-12-05T10:04:17.839Z,5.50
2022-12-05T10:06:56.320Z,5.50
2022-12-05T10:09:36.245Z,5.50
2022-12-05T10:12:20.130Z,5.60
2022-12-05T10:14:59.910Z,5.70
2022-12-05T10:17:33.982Z,5.70
2022-12-05T10:20:06.789Z,5.70
2022-12-05T10:22:44.440Z,5.70
2022-12-05T10:25:15.870Z,5.70
2022-12-05T10:27:47.665Z,5.70
2022-12-05T10:30:20.531Z,5.70
2022-12-05T10:32:54.415Z,5.60
2022-12-05T10:35:24.604Z,5.60
2022-12-05T10:37:55.327Z,5.70
2022-12-05T10:40:37.541Z,5.60
2022-12-05T10:43:06.285Z,5.50
2022-12-05T10:45:42.518Z,5.60
2022-12-05T10:48:15.811Z,5.60
2022-12-05T10:50:51.139Z,5.60
2022-12-05T10:53:23.803Z,5.70
2022-12-05T10:56:28.754Z,5.70
2022-12-05T10:58:57.055Z,5.80
2022-12-05T11:01:31.413Z,5.80
2022-12-05T11:04:02.052Z,5.90
2022-12-05T11:06:32.074Z,6.00
2022-12-05T11:09:05.749Z,6.00
2022-12-05T11:11:35.576Z,6.00
2022-12-05T11:14:06.057Z,6.00
2022-12-05T11:16:37.772Z,6.00
2022-12-05T11:19:24.573Z,6.10
2022-12-05T11:21:53.295Z,6.20
2022-12-05T11:24:23.896Z,6.10
2022-12-05T11:26:52.012Z,6.20
2022-12-05T11:29:38.561Z,6.20
2022-12-05T11:32:19.881Z,6.20
2022-12-05T11:34:55.019Z,6.20
2022-12-05T11:37:27.730Z,6.20
2022-12-05T11:39:55.804Z,6.20
2022-12-05T11:42:33.665Z,6.20
2022-12-05T11:45:18.334Z,6.20
2022-12-05T11:48:06.602Z,6.20
2022-12-05T11:50:42.187Z,6.20
2022-12-05T11:53:27.888Z,6.20
2022-12-05T11:56:05.256Z,6.10
2022-12-05T11:58:51.788Z,6.10
2022-12-05T12:01:25.056Z,6.10
2022-12-05T12:04:14.819Z,6.10
2022-12-05T12:06:51.431Z,6.10
2022-12-05T12:09:30.418Z,6.10
2022-12-05T12:12:05.144Z,6.20
2022-12-05T12:14:42.448Z,6.20
2022-12-05T12:17:21.526Z,6.20
2022-12-05T12:20:16.011Z,6.30
2022-12-05T12:22:58.619Z,6.40
2022-12-05T12:25:38.401Z,6.50
2022-12-05T12:28:26.267Z,6.50
2022-12-05T12:31:07.366Z,6.50
2022-12-05T12:33:42.640Z,6.60
2022-12-05T12:36:19.791Z,6.60
2022-12-05T12:39:16.497Z,6.60
2022-12-05T12:41:58.242Z,6.60
2022-12-05T12:45:09.468Z,6.60
2022-12-05T12:47:49.743Z,6.60
2022-12-05T12:50:22.574Z,6.70
2022-12-05T12:53:23.731Z,6.70
2022-12-05T12:56:00.587Z,6.70
2022-12-05T12:58:41.474Z,6.80
2022-12-05T13:01:18.027Z,6.90
2022-12-05T13:03:54.036Z,7.00
2022-12-05T13:06:28.318Z,7.10
2022-12-05T13:09:00.769Z,7.10
2022-12-05T13:11:34.964Z,7.10
2022-12-05T13:14:04.536Z,7.10
2022-12-05T13:16:42.551Z,7.10
2022-12-05T13:19:28.820Z,7.10
2022-12-05T13:21:58.891Z,7.10
2022-12-05T13:24:29.859Z,7.10
2022-12-05T13:27:01.472Z,7.10
2022-12-05T13:29:34.971Z,7.10
2022-12-05T13:32:04.431Z,7.00
2022-12-05T13:34:50.085Z,7.00
2022-12-05T13:37:41.604Z,6.90
2022-12-05T13:40:42.745Z,6.90
2022-12-05T13:43:14.709Z,6.80
2022-12-05T13:45:44.439Z,6.70
2022-12-05T13:48:20.914Z,6.70
2022-12-05T13:50:55.294Z,6.60
2022-12-05T13:53:38.626Z,6.60
2022-12-05T13:56:27.530Z,6.70
2022-12-05T13:58:57.174Z,6.70
2022-12-05T14:01:53.875Z,6.70
2022-12-05T14:04:50.335Z,6.70
2022-12-05T14:07:38.700Z,6.70
2022-12-05T14:10:08.570Z,6.70
2022-12-05T14:12:49.494Z,6.70
2022-12-05T14:15:35.409Z,6.70
2022-12-05T14:18:14.402Z,6.70
2022-12-05T14:20:49.893Z,6.70
2022-12-05T14:23:39.062Z,6.70
2022-12-05T14:26:18.448Z,6.60
2022-12-05T14:29:06.406Z,6.70
2022-12-05T14:32:04.530Z,6.60
2022-12-05T14:34:35.897Z,6.60
2022-12-05T14:37:07.685Z,6.60
2022-12-05T14:39:40.210Z,6.50
2022-12-05T14:42:22.540Z,6.50
2022-12-05T14:44:53.582Z,6.40
2022-12-05T14:47:23.986Z,6.40
2022-12-05T14:50:02.231Z,6.40
2022-12-05T14:52:34.003Z,6.40
2022-12-05T14:55:06.791Z,6.40
2022-12-05T14:57:44.211Z,6.40
2022-12-05T15:00:22.407Z,6.30
2022-12-05T15:02:55.474Z,6.30
2022-12-05T15:05:28.508Z,6.40
2022-12-05T15:07:57.319Z,6.30
2022-12-05T15:10:29.398Z,6.30
2022-12-05T15:13:00.698Z,6.20
2022-12-05T15:15:40.322Z,6.20
2022-12-05T15:18:19.778Z,6.20
2022-12-05T15:20:53.730Z,6.20
2022-12-05T15:23:42.550Z,6.20
2022-12-05T15:26:46.103Z,6.20
2022-12-05T15:29:16.601Z,6.20
2022-12-05T15:31:49.083Z,6.20
2022-12-05T15:34:19.101Z,6.10
2022-12-05T15:36:51.870Z,6.20
2022-12-05T15:39:25.862Z,6.10
2022-12-05T15:41:54.908Z,6.10
2022-12-05T15:44:27.699Z,6.10
2022-12-05T15:46:59.848Z,6.10
2022-12-05T15:49:29.855Z,6.10
2022-12-05T15:52:08.130Z,6.10
2022-12-05T15:54:39.577Z,6.10
2022-12-05T15:57:14.762Z,6.10
2022-12-05T15:59:48.202Z,6.10
2022-12-05T16:02:22.167Z,6.10
2022-12-05T16:04:55.332Z,6.10
2022-12-05T16:07:26.973Z,6.20
2022-12-05T16:09:58.936Z,6.10
2022-12-05T16:13:02.731Z,6.20
2022-12-05T16:17:06.355Z,6.20
2022-12-05T16:18:29.893Z,6.20
2022-12-05T16:21:00.387Z,6.30
2022-12-05T16:23:32.659Z,6.30
2022-12-05T16:26:21.179Z,6.30
2022-12-05T16:28:59.052Z,6.20
2022-12-05T16:31:45.036Z,6.20
2022-12-05T16:34:18.006Z,6.10
2022-12-05T16:36:47.998Z,6.10
2022-12-05T16:39:19.587Z,6.10
2022-12-05T16:41:48.977Z,6.10
2022-12-05T16:44:57.649Z,6.10
2022-12-05T16:47:27.901Z,6.10
2022-12-05T16:49:57.575Z,6.10
2022-12-05T16:52:32.173Z,6.10
2022-12-05T16:55:00.681Z,6.20
2022-12-05T16:57:28.810Z,6.20
2022-12-05T17:00:04.319Z,6.20
2022-12-05T17:02:32.428Z,6.20
2022-12-05T17:05:07.898Z,6.20
2022-12-05T17:07:36.257Z,6.20
2022-12-05T17:10:04.789Z,6.20
2022-12-05T17:12:33.076Z,6.20
2022-12-05T17:15:01.460Z,6.20
2022-12-05T17:17:32.498Z,6.10
2022-12-05T17:20:02.017Z,6.10
2022-12-05T17:22:30.070Z,6.10
2022-12-05T17:24:59.874Z,6.10
2022-12-05T17:27:28.404Z,6.00
2022-12-05T17:29:56.621Z,6.00
2022-12-05T17:32:24.775Z,6.00
2022-12-05T17:34:52.859Z,5.90
2022-12-05T17:37:23.167Z,5.90
2022-12-05T17:39:51.137Z,5.90
2022-12-05T17:42:19.180Z,5.90
2022-12-05T17:44:47.317Z,5.90
2022-12-05T17:47:15.349Z,5.90
2022-12-05T17:49:43.483Z,5.90
2022-12-05T17:52:21.613Z,5.90
2022-12-05T17:54:53.777Z,5.90
2022-12-05T17:57:23.700Z,5.90
2022-12-05T17:59:51.643Z,5.90
2022-12-05T18:02:20.104Z,6.00
2022-12-05T18:04:48.148Z,6.00
2022-12-05T18:07:16.880Z,5.90
2022-12-05T18:09:44.942Z,5.90
2022-12-05T18:12:14.505Z,5.90
2022-12-05T18:14:42.390Z,5.90
2022-12-05T18:17:10.355Z,5.80
2022-12-05T18:19:38.510Z,5.90
2022-12-05T18:22:06.536Z,5.90
2022-12-05T18:24:34.603Z,5.90
2022-12-05T18:27:02.598Z,5.90
2022-12-05T18:29:32.164Z,5.90
2022-12-05T18:32:00.355Z,5.90
2022-12-05T18:34:29.196Z,5.80
2022-12-05T18:36:57.374Z,5.80
2022-12-05T18:39:25.433Z,5.80
2022-12-05T18:41:54.389Z,5.80
2022-12-05T18:44:22.436Z,5.80
2022-12-05T18:46:51.817Z,5.80
2022-12-05T18:49:23.914Z,5.80
2022-12-05T18:51:52.183Z,5.80
2022-12-05T18:54:20.283Z,5.90
2022-12-05T18:56:50.606Z,5.80
2022-12-05T18:59:20.963Z,5.80
2022-12-05T19:01:49.536Z,5.80
2022-12-05T19:04:21.396Z,5.80
2022-12-05T19:06:51.589Z,5.80
2022-12-05T19:09:22.683Z,5.80
2022-12-05T19:11:54.890Z,5.90
2022-12-05T19:14:27.957Z,5.90
2022-12-05T19:17:00.128Z,5.80
2022-12-05T19:19:34.458Z,5.80
2022-12-05T19:22:02.536Z,5.80
2022-12-05T19:24:30.778Z,5.90
2022-12-05T19:27:02.145Z,5.90
2022-12-05T19:29:32.298Z,5.90
2022-12-05T19:32:02.853Z,5.90
2022-12-05T19:34:34.117Z,6.00
2022-12-05T19:37:02.215Z,6.00
2022-12-05T19:39:30.650Z,6.00
2022-12-05T19:41:59.486Z,6.00
2022-12-05T19:44:30.545Z,6.00
2022-12-05T19:46:58.554Z,6.00
2022-12-05T19:49:28.504Z,6.00
2022-12-05T19:51:57.879Z,6.00
2022-12-05T19:54:26.116Z,6.00
2022-12-05T19:57:00.128Z,6.00
2022-12-05T19:59:28.200Z,6.00
2022-12-05T20:01:56.394Z,6.00
2022-12-05T20:04:26.345Z,5.90
2022-12-05T20:06:54.573Z,5.90
2022-12-05T20:09:27.108Z,5.90
2022-12-05T20:11:56.002Z,5.90
2022-12-05T20:14:27.943Z,5.90
2022-12-05T20:16:56.175Z,5.90
2022-12-05T20:19:24.820Z,5.90
2022-12-05T20:21:55.373Z,5.90
2022-12-05T20:24:28.134Z,5.90
2022-12-05T20:26:56.086Z,5.90
2022-12-05T20:29:24.237Z,5.90
2022-12-05T20:31:56.663Z,5.90
2022-12-05T20:34:24.585Z,5.90
2022-12-05T20:36:52.713Z,5.90
2022-12-05T20:39:24.889Z,5.90
2022-12-05T20:41:54.635Z,5.90
2022-12-05T20:44:23.328Z,5.90
2022-12-05T20:46:52.045Z,6.00
2022-12-05T20:49:20.163Z,6.00
2022-12-05T20:51:48.813Z,6.00
2022-12-05T20:54:18.531Z,6.00
2022-12-05T20:56:46.787Z,6.00
2022-12-05T20:59:16.350Z,6.00
2022-12-05T21:01:44.630Z,6.00
2022-12-05T21:04:16.090Z,6.00
2022-12-05T21:06:45.905Z,6.00
2022-12-05T21:09:18.667Z,6.00
2022-12-05T21:11:50.320Z,6.10
2022-12-05T21:14:22.747Z,6.10
2022-12-05T21:16:52.669Z,6.10
2022-12-05T21:19:22.017Z,6.10
2022-12-05T21:21:52.697Z,6.00
2022-12-05T21:24:25.354Z,6.00
2022-12-05T21:26:56.374Z,5.90
2022-12-05T21:29:25.971Z,6.00
2022-12-05T21:31:54.090Z,6.00
2022-12-05T21:34:22.781Z,6.00
2022-12-05T21:36:51.420Z,6.00
2022-12-05T21:39:19.715Z,6.00
2022-12-05T21:41:47.652Z,5.90
2022-12-05T21:44:16.056Z,5.90
2022-12-05T21:46:53.333Z,6.00
2022-12-05T21:49:21.423Z,6.00
2022-12-05T21:51:49.503Z,6.00
2022-12-05T21:54:17.641Z,6.00
2022-12-05T21:56:46.336Z,6.10
2022-12-05T21:59:14.495Z,6.10
2022-12-05T22:01:42.755Z,6.10
2022-12-05T22:04:12.183Z,6.10
2022-12-05T22:06:40.200Z,6.10
2022-12-05T22:09:09.402Z,6.10
2022-12-05T22:11:37.470Z,6.10
2022-12-05T22:14:05.492Z,6.10
2022-12-05T22:16:33.922Z,6.10
2022-12-05T22:19:02.834Z,6.10
2022-12-05T22:21:34.058Z,6.00
2022-12-05T22:24:02.492Z,6.00
2022-12-05T22:26:30.478Z,6.00
2022-12-05T22:28:58.582Z,6.00
2022-12-05T22:31:26.703Z,6.00
2022-12-05T22:33:54.725Z,6.10
2022-12-05T22:36:25.322Z,6.10
2022-12-05T22:38:54.716Z,6.10
2022-12-05T22:41:27.511Z,6.10
2022-12-05T22:43:57.609Z,6.10
2022-12-05T22:46:30.862Z,6.00
2022-12-05T22:48:58.973Z,6.00
2022-12-05T22:51:27.879Z,6.00
2022-12-05T22:53:57.582Z,6.00
2022-12-05T22:56:28.450Z,6.10
2022-12-05T22:58:57.868Z,6.10
2022-12-05T23:04:54.623Z,6.00
2022-12-05T23:07:48.588Z,6.10
2022-12-05T23:10:37.785Z,5.90
2022-12-05T23:13:24.005Z,5.90
2022-12-05T23:16:15.543Z,5.90
2022-12-05T23:19:04.627Z,6.00
2022-12-05T23:21:34.983Z,5.90
2022-12-05T23:24:05.246Z,6.00
2022-12-05T23:26:36.491Z,5.90
2022-12-05T23:29:04.874Z,6.00
2022-12-05T23:31:32.896Z,5.90
2022-12-05T23:34:03.613Z,5.90
2022-12-05T23:36:32.577Z,6.00
2022-12-05T23:39:00.481Z,6.00
2022-12-05T23:41:28.533Z,6.00
2022-12-05T23:43:59.380Z,6.00
2022-12-05T23:46:31.929Z,6.00
2022-12-05T23:49:00.007Z,5.90
2022-12-05T23:51:29.808Z,6.00
2022-12-05T23:53:59.172Z,6.00
2022-12-05T23:56:29.295Z,5.90
2022-12-05T23:58:58.881Z,6.00
